Stevens Pass
Stevens Pass Ski Area - Tye Mill Chair, Skyline Chair
Latest observation 09/01 16:00 PDT
| Time (PDT) | Temp °F 5180' | Temp °F 5250' | RH % 5250' | Min mph 5180' | Spd mph 5180' | Gust mph 5180' | Dir ° 5180' |
|---|---|---|---|---|---|---|---|
| 09/01 16:00 | 51 | – | – | 7 | 11 | 20 | 263 |
| 09/01 15:00 | 55 | – | – | 2 | 15 | 24 | 268 |
| 09/01 14:00 | 52 | – | – | 3 | 16 | 26 | 259 |
| 09/01 13:00 | 57 | 61 | 60 | 0 | 11 | 19 | 256 |
| 09/01 12:00 | 57 | 61 | 58 | 3 | 8 | 16 | 262 |
| 09/01 11:00 | 57 | 62 | 58 | 2 | 5 | 11 | 278 |
| 09/01 10:00 | 56 | 60 | 58 | 1 | 5 | 8 | 285 |
| 09/01 09:00 | 53 | 54 | 66 | 2 | 6 | 11 | 277 |
| 09/01 08:00 | 54 | 52 | 70 | 1 | 4 | 8 | 273 |
| 09/01 07:00 | 55 | 51 | 60 | 0 | 2 | 4 | 264 |
| 09/01 06:00 | 55 | 53 | 50 | 0 | 2 | 5 | 92 |
| 09/01 05:00 | 57 | 57 | 41 | 0 | 2 | 5 | 81 |
| 09/01 04:00 | 56 | 54 | 44 | 0 | 3 | 5 | 95 |
| 09/01 03:00 | 56 | 57 | 41 | 0 | 3 | 9 | 101 |
| 09/01 02:00 | 57 | 56 | 44 | 2 | 6 | 11 | 116 |
| 09/01 01:00 | 55 | 58 | 43 | 3 | 5 | 9 | 113 |
| 09/01 00:00 | 56 | 58 | 44 | 0 | 5 | 8 | 105 |
| 08/31 23:00 | 56 | 58 | 42 | 3 | 5 | 7 | 94 |
| 08/31 22:00 | 57 | 58 | 46 | 2 | 4 | 6 | 94 |
| 08/31 21:00 | 57 | 58 | 47 | 2 | 5 | 8 | 104 |
| 08/31 20:00 | 59 | 59 | 48 | 0 | 5 | 9 | 77 |
| 08/31 19:00 | 61 | 60 | 46 | 0 | 6 | 12 | 45 |
| 08/31 18:00 | 62 | 61 | 45 | 0 | 5 | 10 | 47 |
| 08/31 17:00 | 64 | 62 | 44 | 0 | 2 | 10 | 67 |

